createdAt,value
2019-06-10T00:00:31.243Z,0.80
2019-06-10T00:02:57.734Z,0.72
2019-06-10T00:05:24.258Z,0.70
2019-06-10T00:07:51.575Z,0.75
2019-06-10T00:10:18.338Z,0.70
2019-06-10T00:12:46.465Z,0.70
2019-06-10T00:15:13.111Z,0.80
2019-06-10T00:17:53.134Z,0.80
2019-06-10T00:20:10.971Z,1.00
2019-06-10T00:22:37.177Z,0.82
2019-06-10T00:25:06.674Z,0.78
2019-06-10T00:27:33.413Z,0.70
2019-06-10T00:30:02.594Z,0.90
2019-06-10T00:32:28.779Z,1.20
2019-06-10T00:34:55.093Z,0.85
2019-06-10T00:37:21.366Z,0.80
2019-06-10T00:39:47.677Z,0.70
2019-06-10T00:42:15.099Z,0.80
2019-06-10T00:44:41.841Z,0.88
2019-06-10T00:47:12.451Z,0.65
2019-06-10T00:49:36.288Z,0.80
2019-06-10T00:52:04.237Z,0.85
2019-06-10T00:54:31.309Z,0.80
2019-06-10T00:56:57.679Z,0.80
2019-06-10T00:59:25.131Z,0.65
2019-06-10T01:01:51.440Z,1.00
2019-06-10T01:04:17.658Z,0.80
2019-06-10T01:06:43.881Z,0.90
2019-06-10T01:09:12.786Z,0.60
2019-06-10T01:11:38.352Z,0.57
2019-06-10T01:14:05.167Z,0.85
2019-06-10T01:16:31.897Z,0.60
2019-06-10T01:18:58.292Z,1.10
2019-06-10T01:21:24.533Z,0.50
2019-06-10T01:23:51.105Z,0.60
2019-06-10T01:26:18.342Z,0.57
2019-06-10T01:28:44.713Z,0.95
2019-06-10T01:31:15.608Z,0.78
2019-06-10T01:33:41.053Z,0.70
2019-06-10T01:36:07.673Z,0.70
2019-06-10T01:38:34.073Z,0.70
2019-06-10T01:41:01.505Z,0.50
2019-06-10T01:43:28.049Z,0.70
2019-06-10T01:45:54.260Z,0.78
2019-06-10T01:48:20.930Z,0.78
2019-06-10T01:50:47.541Z,0.82
2019-06-10T01:53:15.676Z,0.70
2019-06-10T01:55:42.124Z,0.70
2019-06-10T01:58:10.639Z,0.90
2019-06-10T02:00:45.633Z,0.65
2019-06-10T02:03:16.238Z,0.80
2019-06-10T02:08:08.701Z,0.70
2019-06-10T02:10:36.321Z,0.70
2019-06-10T02:13:02.637Z,0.78
2019-06-10T02:15:31.381Z,0.60
2019-06-10T02:17:56.997Z,0.60
2019-06-10T02:20:23.943Z,0.68
2019-06-10T02:22:51.573Z,1.00
2019-06-10T02:25:18.850Z,0.80
2019-06-10T02:28:01.086Z,0.80
2019-06-10T02:30:40.026Z,0.80
2019-06-10T02:32:56.602Z,0.85
2019-06-10T02:35:32.260Z,1.15
2019-06-10T02:37:53.724Z,0.72
2019-06-10T02:40:24.546Z,0.85
2019-06-10T02:42:49.231Z,0.60
2019-06-10T02:45:19.628Z,0.65
2019-06-10T02:47:44.563Z,0.93
2019-06-10T02:50:14.423Z,0.75
2019-06-10T02:52:44.085Z,0.60
2019-06-10T02:55:09.073Z,1.05
2019-06-10T02:57:40.056Z,1.12
2019-06-10T03:00:17.006Z,1.35
2019-06-10T03:02:38.050Z,0.70
2019-06-10T03:05:04.947Z,0.75
2019-06-10T03:07:35.267Z,0.98
2019-06-10T03:09:59.446Z,0.90
2019-06-10T03:12:25.960Z,0.78
2019-06-10T03:14:52.653Z,1.00
2019-06-10T03:17:23.229Z,0.90
2019-06-10T03:19:50.795Z,0.90
2019-06-10T03:24:44.369Z,0.93
2019-06-10T03:27:12.534Z,0.82
2019-06-10T03:29:38.715Z,0.88
2019-06-10T03:32:05.731Z,0.72
2019-06-10T03:34:40.543Z,0.90
2019-06-10T03:37:02.342Z,0.72
2019-06-10T03:41:55.749Z,0.80
2019-06-10T03:44:24.817Z,0.60
2019-06-10T03:49:19.151Z,0.80
2019-06-10T03:51:45.570Z,0.60
2019-06-10T03:54:13.137Z,0.80
2019-06-10T03:56:39.597Z,0.98
2019-06-10T03:59:05.832Z,0.75
2019-06-10T04:01:33.366Z,0.90
2019-06-10T04:04:02.193Z,0.82
2019-06-10T04:06:29.421Z,0.88
2019-06-10T04:08:55.929Z,0.65
2019-06-10T04:11:23.962Z,0.80
2019-06-10T04:13:50.293Z,1.02
2019-06-10T04:16:17.610Z,0.65
2019-06-10T04:18:44.154Z,1.10
2019-06-10T04:21:12.594Z,0.82
2019-06-10T04:23:38.520Z,0.85
2019-06-10T04:26:04.945Z,1.10
2019-06-10T04:28:33.511Z,0.62
2019-06-10T04:30:59.338Z,0.88
2019-06-10T04:33:26.201Z,0.80
2019-06-10T04:35:53.593Z,0.80
2019-06-10T04:38:20.980Z,0.85
2019-06-10T04:40:47.933Z,0.88
2019-06-10T04:43:14.181Z,0.90
2019-06-10T04:45:42.976Z,0.75
2019-06-10T04:48:09.222Z,0.90
2019-06-10T04:50:42.545Z,0.90
2019-06-10T04:53:04.689Z,0.80
2019-06-10T04:55:32.655Z,0.80
2019-06-10T04:57:59.061Z,0.88
2019-06-10T05:00:27.162Z,0.90
2019-06-10T05:02:53.602Z,0.90
2019-06-10T05:05:21.568Z,1.50
2019-06-10T05:07:47.961Z,0.70
2019-06-10T05:10:14.485Z,0.72
2019-06-10T05:12:43.120Z,0.98
2019-06-10T05:15:09.043Z,0.60
2019-06-10T05:17:35.257Z,0.70
2019-06-10T05:20:02.814Z,0.70
2019-06-10T05:22:30.599Z,0.60
2019-06-10T05:27:25.090Z,1.22
2019-06-10T05:29:52.708Z,0.90
2019-06-10T05:32:20.816Z,0.72
2019-06-10T05:34:47.341Z,0.62
2019-06-10T05:37:13.565Z,0.85
2019-06-10T05:39:42.272Z,0.85
2019-06-10T05:42:07.916Z,0.70
2019-06-10T05:44:34.641Z,0.60
2019-06-10T05:47:03.691Z,0.80
2019-06-10T05:54:24.910Z,0.60
2019-06-10T05:56:52.214Z,0.57
2019-06-10T05:59:18.753Z,0.65
2019-06-10T06:01:44.977Z,0.53
2019-06-10T06:04:12.639Z,0.50
2019-06-10T06:06:41.713Z,0.50
2019-06-10T06:09:07.281Z,0.60
2019-06-10T06:11:35.267Z,0.40
2019-06-10T06:16:29.819Z,0.50
2019-06-10T06:21:30.055Z,0.60
2019-06-10T06:23:52.818Z,0.50
2019-06-10T06:26:19.666Z,0.50
2019-06-10T06:28:45.881Z,0.70
2019-06-10T06:31:12.662Z,0.47
2019-06-10T06:33:39.938Z,0.80
2019-06-10T06:36:06.265Z,0.60
2019-06-10T06:38:35.139Z,0.45
2019-06-10T06:41:02.973Z,0.50
2019-06-10T06:45:56.725Z,0.50
2019-06-10T06:48:23.111Z,0.50
2019-06-10T06:51:02.078Z,0.47
2019-06-10T06:53:28.590Z,0.45
2019-06-10T06:58:12.570Z,0.60
2019-06-10T07:00:55.705Z,0.50
2019-06-10T07:03:07.842Z,0.40
2019-06-10T07:05:35.955Z,0.53
2019-06-10T07:08:03.412Z,0.40
2019-06-10T07:10:35.459Z,0.55
2019-06-10T07:13:03.889Z,0.45
2019-06-10T07:15:42.202Z,0.60
2019-06-10T07:18:08.894Z,0.50
2019-06-10T07:20:36.680Z,0.50
2019-06-10T07:25:32.151Z,0.60
2019-06-10T07:27:57.613Z,0.50
2019-06-10T07:30:23.853Z,0.62
2019-06-10T07:32:50.081Z,0.70
2019-06-10T07:35:16.302Z,0.60
2019-06-10T07:37:44.503Z,0.60
2019-06-10T07:42:39.059Z,0.50
2019-06-10T07:45:06.145Z,0.60
2019-06-10T07:47:33.832Z,0.50
2019-06-10T07:50:02.880Z,0.40
2019-06-10T07:54:54.783Z,0.55
2019-06-10T07:57:22.570Z,0.57
2019-06-10T07:59:49.155Z,0.80
2019-06-10T08:02:15.471Z,0.60
2019-06-10T08:04:44.207Z,0.50
2019-06-10T08:07:12.399Z,0.60
2019-06-10T08:09:39.070Z,0.80
2019-06-10T08:12:05.999Z,0.62
2019-06-10T08:14:33.033Z,0.50
2019-06-10T08:16:59.451Z,0.50
2019-06-10T08:19:34.354Z,0.70
2019-06-10T08:21:53.925Z,0.50
2019-06-10T08:24:22.138Z,0.60
2019-06-10T08:26:48.338Z,0.60
2019-06-10T08:29:14.581Z,0.62
2019-06-10T08:31:43.659Z,0.57
2019-06-10T08:34:09.018Z,0.68
2019-06-10T08:36:36.294Z,0.40
2019-06-10T08:39:05.189Z,0.60
2019-06-10T08:41:32.271Z,0.50
2019-06-10T08:43:58.741Z,0.60
2019-06-10T08:46:24.969Z,0.65
2019-06-10T08:48:52.563Z,0.60
2019-06-10T08:51:19.058Z,0.50
2019-06-10T08:53:48.094Z,0.50
2019-06-10T08:58:40.946Z,0.60
2019-06-10T09:03:33.897Z,0.68
2019-06-10T09:06:02.546Z,0.62
2019-06-10T09:08:28.846Z,0.85
2019-06-10T09:10:55.525Z,0.72
2019-06-10T09:13:22.431Z,0.45
2019-06-10T09:16:05.982Z,0.70
2019-06-10T09:20:55.683Z,0.55
2019-06-10T09:28:15.961Z,0.57
2019-06-10T09:30:47.681Z,0.68
2019-06-10T09:33:12.846Z,0.68
2019-06-10T09:40:59.927Z,0.50
2019-06-10T09:43:22.547Z,0.62
2019-06-10T09:45:51.344Z,0.60
2019-06-10T09:48:22.693Z,0.60
2019-06-10T09:50:53.579Z,0.68
2019-06-10T09:53:30.241Z,0.53
2019-06-10T09:55:49.708Z,0.60
2019-06-10T09:58:15.209Z,0.70
2019-06-10T10:00:51.018Z,0.70
2019-06-10T10:03:15.897Z,0.50
2019-06-10T10:05:55.176Z,0.60
2019-06-10T10:08:12.677Z,0.42
2019-06-10T10:10:39.465Z,0.50
2019-06-10T10:13:06.593Z,0.70
2019-06-10T10:15:34.479Z,2.00
2019-06-10T10:18:04.837Z,0.90
2019-06-10T10:20:33.963Z,1.65
2019-06-10T10:25:25.280Z,0.80
2019-06-10T10:27:57.242Z,1.02
2019-06-10T10:30:25.505Z,0.60
2019-06-10T10:32:55.457Z,0.82
2019-06-10T10:35:24.214Z,0.80
2019-06-10T10:37:53.841Z,0.62
2019-06-10T10:40:19.941Z,0.60
2019-06-10T10:42:52.287Z,0.53
2019-06-10T10:47:40.870Z,0.68
2019-06-10T10:50:07.847Z,0.80
2019-06-10T10:52:35.146Z,0.60
2019-06-10T10:55:06.720Z,0.70
2019-06-10T10:57:32.949Z,0.60
2019-06-10T11:02:24.820Z,0.60
2019-06-10T11:04:55.103Z,0.50
2019-06-10T11:09:46.556Z,0.60
2019-06-10T11:12:15.228Z,0.78
2019-06-10T11:17:08.858Z,0.55
2019-06-10T11:19:35.107Z,0.70
2019-06-10T11:22:02.790Z,0.53
2019-06-10T11:24:37.708Z,0.70
2019-06-10T11:29:25.762Z,0.60
2019-06-10T11:31:55.042Z,0.80
2019-06-10T11:36:47.872Z,0.70
2019-06-10T11:39:14.297Z,0.78
2019-06-10T11:41:42.872Z,0.80
2019-06-10T11:46:34.958Z,0.55
2019-06-10T11:49:03.904Z,0.68
2019-06-10T11:53:57.177Z,0.80
2019-06-10T11:58:50.040Z,0.72
2019-06-10T12:01:16.456Z,0.60
2019-06-10T12:03:43.373Z,0.70
2019-06-10T12:06:09.697Z,0.80
2019-06-10T12:08:35.909Z,0.80
2019-06-10T12:11:02.624Z,0.90
2019-06-10T12:13:28.982Z,0.80
2019-06-10T12:16:50.440Z,0.60
2019-06-10T12:20:49.705Z,0.85
2019-06-10T12:23:16.053Z,0.70
2019-06-10T12:25:43.638Z,0.70
2019-06-10T12:28:12.725Z,0.50
2019-06-10T12:33:05.621Z,0.70
2019-06-10T12:35:33.353Z,0.70
2019-06-10T12:38:13.987Z,0.45
2019-06-10T12:40:42.761Z,0.60
2019-06-10T12:45:34.737Z,0.78
2019-06-10T12:48:04.553Z,0.65
2019-06-10T12:52:56.507Z,0.68
2019-06-10T12:57:52.324Z,0.72
2019-06-10T13:00:23.847Z,0.60
2019-06-10T13:02:49.059Z,0.60
2019-06-10T13:05:15.273Z,0.50
2019-06-10T13:07:43.197Z,0.70
2019-06-10T13:10:12.127Z,0.80
2019-06-10T13:12:38.499Z,0.60
2019-06-10T13:15:08.778Z,0.60
2019-06-10T13:17:35.330Z,0.60
2019-06-10T13:20:05.777Z,0.60
2019-06-10T13:22:32.402Z,0.65
2019-06-10T13:27:25.067Z,0.73
2019-06-10T13:30:04.754Z,0.55
2019-06-10T13:32:32.465Z,0.68
2019-06-10T13:35:00.572Z,0.60
2019-06-10T13:37:27.037Z,0.70
2019-06-10T13:39:53.256Z,0.70
2019-06-10T13:42:19.485Z,0.75
2019-06-10T13:44:45.754Z,0.60
2019-06-10T13:47:15.001Z,0.70
2019-06-10T13:49:42.839Z,0.60
2019-06-10T13:52:16.250Z,0.85
2019-06-10T13:57:06.910Z,0.55
2019-06-10T14:01:59.889Z,0.70
2019-06-10T14:06:56.784Z,0.70
2019-06-10T14:09:23.146Z,0.55
2019-06-10T14:11:49.665Z,0.60
2019-06-10T14:14:18.180Z,0.57
2019-06-10T14:19:12.615Z,0.60
2019-06-10T14:24:04.478Z,0.68
2019-06-10T14:26:39.858Z,0.50
2019-06-10T14:31:39.090Z,0.78
2019-06-10T14:36:22.038Z,0.70
2019-06-10T14:41:14.291Z,0.70
2019-06-10T14:43:42.397Z,0.60
2019-06-10T14:48:36.426Z,0.60
2019-06-10T14:51:03.311Z,0.68
2019-06-10T14:53:30.173Z,0.60
2019-06-10T14:55:56.397Z,0.50
2019-06-10T14:58:23.283Z,0.60
2019-06-10T15:00:49.777Z,0.57
2019-06-10T15:03:20.023Z,0.70
2019-06-10T15:05:45.230Z,0.78
2019-06-10T15:08:13.809Z,0.70
2019-06-10T15:13:05.803Z,0.60
2019-06-10T15:15:33.062Z,0.70
2019-06-10T15:17:59.557Z,0.70
2019-06-10T15:20:25.937Z,0.80
2019-06-10T15:22:52.782Z,0.75
2019-06-10T15:25:22.546Z,0.60
2019-06-10T15:30:22.555Z,0.70
2019-06-10T15:32:42.775Z,0.82
2019-06-10T15:35:10.708Z,0.60
2019-06-10T15:37:37.875Z,0.75
2019-06-10T15:40:04.896Z,0.80
2019-06-10T15:42:33.312Z,0.60
2019-06-10T15:47:26.533Z,0.60
2019-06-10T15:49:52.989Z,0.72
2019-06-10T15:52:20.653Z,0.50
2019-06-10T15:57:26.501Z,0.70
2019-06-10T16:02:09.249Z,0.70
2019-06-10T16:04:36.715Z,0.55
2019-06-10T16:07:03.051Z,0.70
2019-06-10T16:09:29.360Z,0.90
2019-06-10T16:11:55.902Z,0.60
2019-06-10T16:14:25.176Z,0.60
2019-06-10T16:16:52.441Z,0.70
2019-06-10T16:21:46.045Z,0.60
2019-06-10T16:24:13.655Z,0.70
2019-06-10T16:29:06.543Z,0.72
2019-06-10T16:31:52.974Z,0.60
2019-06-10T16:34:19.708Z,0.85
2019-06-10T16:39:13.471Z,0.53
2019-06-10T16:41:39.696Z,0.70
2019-06-10T16:44:06.013Z,0.70
2019-06-10T16:46:32.533Z,0.62
2019-06-10T16:48:58.756Z,0.60
2019-06-10T16:51:25.764Z,0.85
2019-06-10T16:53:52.956Z,0.80
2019-06-10T16:56:19.710Z,0.60
2019-06-10T16:58:46.086Z,0.60
2019-06-10T17:01:12.622Z,0.70
2019-06-10T17:03:39.073Z,0.72
2019-06-10T17:06:05.405Z,0.72
2019-06-10T17:08:33.495Z,0.60
2019-06-10T17:13:28.920Z,0.50
2019-06-10T17:15:55.669Z,0.50
2019-06-10T17:18:23.570Z,0.70
2019-06-10T17:20:50.151Z,0.68
2019-06-10T17:23:26.493Z,0.70
2019-06-10T17:25:53.887Z,0.50
2019-06-10T17:28:24.696Z,0.60
2019-06-10T17:30:52.893Z,0.60
2019-06-10T17:33:19.771Z,0.70
2019-06-10T17:38:12.790Z,0.50
2019-06-10T17:40:39.101Z,0.50
2019-06-10T17:43:05.389Z,0.65
2019-06-10T17:45:32.167Z,0.65
2019-06-10T17:47:58.761Z,0.60
2019-06-10T17:50:25.335Z,0.62
2019-06-10T17:52:53.541Z,0.80
2019-06-10T17:55:19.941Z,0.63
2019-06-10T17:57:47.540Z,0.60
2019-06-10T18:00:15.074Z,0.88
2019-06-10T18:02:42.581Z,0.60
2019-06-10T18:05:09.582Z,0.78
2019-06-10T18:07:35.874Z,0.55
2019-06-10T18:10:04.890Z,0.68
2019-06-10T18:12:33.971Z,0.50
2019-06-10T18:17:27.114Z,0.98
2019-06-10T18:19:54.648Z,1.00
2019-06-10T18:22:22.887Z,1.30
2019-06-10T18:27:15.222Z,1.32
2019-06-10T18:29:42.628Z,1.27
2019-06-10T18:32:09.097Z,1.35
2019-06-10T18:34:37.894Z,1.30
2019-06-10T18:39:29.669Z,1.12
2019-06-10T18:41:56.023Z,1.10
2019-06-10T18:44:25.926Z,1.17
2019-06-10T18:49:16.528Z,1.27
2019-06-10T18:51:43.451Z,1.32
2019-06-10T18:54:10.086Z,1.30
2019-06-10T18:56:37.372Z,1.40
2019-06-10T18:59:15.605Z,1.40
2019-06-10T19:01:32.262Z,1.42
2019-06-10T19:03:58.657Z,1.30
2019-06-10T19:06:25.048Z,1.05
2019-06-10T19:08:53.096Z,1.57
2019-06-10T19:13:45.729Z,1.60
2019-06-10T19:16:12.940Z,1.32
2019-06-10T19:18:40.884Z,1.25
2019-06-10T19:23:37.793Z,1.20
2019-06-10T19:28:30.635Z,1.30
2019-06-10T19:33:24.197Z,1.20
2019-06-10T19:35:52.817Z,1.32
2019-06-10T19:38:18.684Z,1.10
2019-06-10T19:40:44.974Z,1.17
2019-06-10T19:43:12.347Z,1.17
2019-06-10T19:45:38.725Z,1.30
2019-06-10T19:48:04.963Z,1.30
2019-06-10T19:50:33.092Z,1.60
2019-06-10T19:55:25.529Z,1.20
2019-06-10T19:57:51.857Z,1.30
2019-06-10T20:00:18.807Z,1.45
2019-06-10T20:02:46.928Z,1.22
2019-06-10T20:07:43.051Z,1.20
2019-06-10T20:12:34.469Z,1.40
2019-06-10T20:15:02.238Z,1.40
2019-06-10T20:17:28.741Z,1.17
2019-06-10T20:19:55.009Z,1.45
2019-06-10T20:22:22.810Z,1.60
2019-06-10T20:24:49.270Z,1.30
2019-06-10T20:27:15.509Z,1.45
2019-06-10T20:29:43.060Z,1.40
2019-06-10T20:32:09.875Z,1.50
2019-06-10T20:34:37.120Z,1.60
2019-06-10T20:37:04.760Z,1.30
2019-06-10T20:39:32.954Z,1.17
2019-06-10T20:41:59.338Z,1.62
2019-06-10T20:44:25.595Z,1.12
2019-06-10T20:46:52.935Z,1.72
2019-06-10T20:49:19.482Z,1.50
2019-06-10T20:51:57.002Z,1.40
2019-06-10T20:54:13.953Z,1.42
2019-06-10T20:56:41.117Z,1.50
2019-06-10T20:59:08.369Z,1.25
2019-06-10T21:01:34.612Z,1.98
2019-06-10T21:04:03.318Z,1.57
2019-06-10T21:08:59.343Z,1.37
2019-06-10T21:11:25.676Z,1.47
2019-06-10T21:13:53.244Z,1.50
2019-06-10T21:18:48.775Z,1.47
2019-06-10T21:21:14.388Z,1.60
2019-06-10T21:23:42.983Z,1.32
2019-06-10T21:26:08.896Z,1.50
2019-06-10T21:28:35.230Z,1.60
2019-06-10T21:31:02.825Z,1.98
2019-06-10T21:33:29.528Z,1.70
2019-06-10T21:35:55.857Z,1.50
2019-06-10T21:38:23.168Z,1.30
2019-06-10T21:40:49.794Z,1.50
2019-06-10T21:43:16.182Z,1.50
2019-06-10T21:45:43.897Z,1.47
2019-06-10T21:48:12.392Z,1.55
2019-06-10T21:53:04.825Z,1.47
2019-06-10T21:55:33.128Z,1.50
2019-06-10T22:00:28.316Z,1.30
2019-06-10T22:02:58.446Z,1.40
2019-06-10T22:05:24.390Z,1.50
2019-06-10T22:07:55.110Z,1.60
2019-06-10T22:12:46.035Z,1.47
2019-06-10T22:15:12.773Z,1.52
2019-06-10T22:17:39.002Z,1.45
2019-06-10T22:20:06.427Z,1.45
2019-06-10T22:22:32.755Z,1.72
2019-06-10T22:24:58.993Z,1.60
2019-06-10T22:27:25.228Z,1.45
2019-06-10T22:29:53.873Z,1.40
2019-06-10T22:32:19.761Z,1.40
2019-06-10T22:34:46.004Z,1.80
2019-06-10T22:37:12.557Z,1.22
2019-06-10T22:39:38.934Z,1.75
2019-06-10T22:42:05.182Z,1.70
2019-06-10T22:44:33.135Z,1.62
2019-06-10T22:47:00.115Z,1.52
2019-06-10T22:49:26.923Z,1.70
2019-06-10T22:51:55.150Z,1.80
2019-06-10T22:54:21.525Z,1.57
2019-06-10T22:56:47.889Z,1.67
2019-06-10T22:59:14.261Z,2.30
2019-06-10T23:01:42.402Z,1.90
2019-06-10T23:04:08.631Z,1.57
2019-06-10T23:06:34.965Z,1.57
2019-06-10T23:09:02.672Z,1.75
2019-06-10T23:11:32.323Z,1.62
2019-06-10T23:13:59.647Z,1.82
2019-06-10T23:16:26.036Z,2.02
2019-06-10T23:18:54.033Z,2.10
2019-06-10T23:21:20.441Z,2.30
2019-06-10T23:23:46.695Z,1.80
2019-06-10T23:26:13.137Z,2.20
2019-06-10T23:28:54.446Z,1.80
2019-06-10T23:31:22.851Z,1.92
2019-06-10T23:33:50.074Z,2.10
2019-06-10T23:36:16.569Z,2.00
2019-06-10T23:38:43.230Z,1.60
2019-06-10T23:41:09.651Z,1.90
2019-06-10T23:43:35.873Z,2.35
2019-06-10T23:46:04.381Z,2.02
2019-06-10T23:48:30.229Z,2.33
2019-06-10T23:50:57.755Z,1.75
2019-06-10T23:53:24.629Z,1.70
2019-06-10T23:55:52.930Z,1.92
2019-06-10T23:58:22.001Z,2.00
